createdAt,value
2018-09-29T00:01:20.428Z,11.40
2018-09-29T00:03:48.938Z,11.40
2018-09-29T00:06:17.446Z,11.40
2018-09-29T00:08:45.956Z,11.40
2018-09-29T00:11:14.477Z,11.30
2018-09-29T00:13:42.997Z,11.30
2018-09-29T00:16:11.538Z,11.30
2018-09-29T00:18:40.066Z,11.30
2018-09-29T00:21:08.633Z,11.30
2018-09-29T00:23:37.190Z,11.30
2018-09-29T00:26:05.709Z,11.20
2018-09-29T00:28:34.256Z,11.30
2018-09-29T00:31:02.815Z,11.30
2018-09-29T00:33:31.364Z,11.30
2018-09-29T00:35:59.877Z,11.20
2018-09-29T00:38:28.476Z,11.10
2018-09-29T00:40:57.561Z,11.10
2018-09-29T00:43:26.161Z,11.20
2018-09-29T00:45:54.730Z,11.10
2018-09-29T00:48:23.277Z,11.10
2018-09-29T00:50:51.899Z,11.10
2018-09-29T00:53:20.382Z,11.10
2018-09-29T00:55:48.845Z,11.10
2018-09-29T00:58:17.337Z,11.00
2018-09-29T01:00:45.840Z,11.00
2018-09-29T01:03:14.352Z,11.00
2018-09-29T01:05:42.921Z,11.10
2018-09-29T01:08:11.430Z,11.00
2018-09-29T01:10:39.934Z,11.00
2018-09-29T01:13:08.469Z,11.00
2018-09-29T01:15:36.968Z,11.00
2018-09-29T01:18:05.599Z,10.90
2018-09-29T01:20:34.056Z,10.90
2018-09-29T01:23:02.620Z,11.00
2018-09-29T01:25:31.222Z,10.90
2018-09-29T01:27:59.748Z,10.90
2018-09-29T01:30:28.932Z,10.90
2018-09-29T01:32:57.641Z,10.80
2018-09-29T01:35:26.285Z,10.80
2018-09-29T01:37:54.755Z,10.80
2018-09-29T01:40:23.334Z,10.80
2018-09-29T01:42:51.787Z,10.70
2018-09-29T01:45:20.290Z,10.70
2018-09-29T01:47:48.795Z,10.70
2018-09-29T01:50:17.286Z,10.70
2018-09-29T01:52:45.740Z,10.70
2018-09-29T01:55:14.213Z,10.60
2018-09-29T01:57:42.656Z,10.60
2018-09-29T02:00:11.540Z,10.60
2018-09-29T02:02:40.025Z,10.60
2018-09-29T02:05:08.536Z,10.60
2018-09-29T02:07:37.042Z,10.50
2018-09-29T02:10:05.589Z,10.50
2018-09-29T02:12:34.127Z,10.50
2018-09-29T02:15:02.741Z,10.50
2018-09-29T02:17:31.441Z,10.50
2018-09-29T02:19:59.995Z,10.40
2018-09-29T02:22:29.539Z,10.50
2018-09-29T02:24:58.289Z,10.40
2018-09-29T02:27:26.906Z,10.40
2018-09-29T02:29:55.502Z,10.30
2018-09-29T02:32:24.072Z,10.30
2018-09-29T02:34:52.509Z,10.30
2018-09-29T02:37:21.015Z,10.30
2018-09-29T02:39:49.530Z,10.30
2018-09-29T02:42:18.044Z,10.30
2018-09-29T02:44:46.513Z,10.30
2018-09-29T02:47:15.053Z,10.20
2018-09-29T02:49:43.658Z,10.20
2018-09-29T02:52:12.242Z,10.20
2018-09-29T02:54:40.700Z,10.20
2018-09-29T02:57:09.440Z,10.20
2018-09-29T02:59:37.981Z,10.20
2018-09-29T03:02:06.546Z,10.20
2018-09-29T03:04:35.132Z,10.20
2018-09-29T03:07:03.586Z,10.20
2018-09-29T03:09:32.191Z,10.20
2018-09-29T03:12:02.311Z,10.20
2018-09-29T03:14:31.043Z,10.10
2018-09-29T03:16:59.615Z,10.00
2018-09-29T03:19:28.637Z,10.00
2018-09-29T03:21:57.331Z,10.00
2018-09-29T03:24:26.124Z,10.00
2018-09-29T03:26:55.664Z,10.00
2018-09-29T03:29:24.421Z,10.00
2018-09-29T03:31:52.981Z,10.00
2018-09-29T03:34:21.439Z,9.90
2018-09-29T03:36:56.543Z,9.90
2018-09-29T03:39:25.110Z,9.90
2018-09-29T03:41:53.708Z,9.80
2018-09-29T03:44:22.204Z,9.70
2018-09-29T03:46:50.776Z,9.60
2018-09-29T03:49:19.239Z,9.50
2018-09-29T03:51:47.705Z,9.50
2018-09-29T03:54:16.250Z,9.50
2018-09-29T03:56:44.809Z,9.50
2018-09-29T03:59:13.320Z,9.40
2018-09-29T04:01:41.836Z,9.40
2018-09-29T04:04:10.309Z,9.30
2018-09-29T04:06:38.812Z,9.30
2018-09-29T04:09:07.777Z,9.30
2018-09-29T04:11:36.325Z,9.40
2018-09-29T04:14:04.850Z,9.30
2018-09-29T04:16:34.196Z,9.20
2018-09-29T04:19:02.750Z,9.20
2018-09-29T04:21:45.754Z,9.20
2018-09-29T04:24:14.621Z,9.20
2018-09-29T04:26:43.400Z,9.10
2018-09-29T04:29:12.697Z,9.10
2018-09-29T04:31:41.813Z,9.10
2018-09-29T04:34:10.808Z,9.00
2018-09-29T04:36:39.319Z,9.00
2018-09-29T04:39:09.864Z,8.90
2018-09-29T04:41:38.827Z,8.90
2018-09-29T04:44:07.781Z,8.90
2018-09-29T04:46:36.213Z,8.90
2018-09-29T04:49:04.801Z,8.80
2018-09-29T04:51:33.290Z,8.70
2018-09-29T04:54:01.857Z,8.70
2018-09-29T04:56:30.797Z,8.70
2018-09-29T04:58:59.380Z,8.60
2018-09-29T05:01:28.525Z,8.60
2018-09-29T05:03:57.218Z,8.50
2018-09-29T05:06:26.660Z,8.50
2018-09-29T05:08:57.002Z,8.50
2018-09-29T05:11:25.621Z,8.60
2018-09-29T05:13:54.256Z,8.60
2018-09-29T05:16:22.725Z,8.70
2018-09-29T05:18:51.185Z,8.60
2018-09-29T05:21:19.701Z,8.60
2018-09-29T05:23:48.220Z,8.60
2018-09-29T05:26:16.681Z,8.60
2018-09-29T05:28:45.309Z,8.50
2018-09-29T05:31:14.394Z,8.50
2018-09-29T05:33:43.201Z,8.50
2018-09-29T05:36:11.805Z,8.50
2018-09-29T05:38:41.132Z,8.50
2018-09-29T05:41:10.896Z,8.60
2018-09-29T05:43:40.695Z,8.60
2018-09-29T05:46:11.679Z,8.50
2018-09-29T05:48:40.189Z,8.30
2018-09-29T05:51:09.115Z,8.20
2018-09-29T05:53:37.661Z,8.40
2018-09-29T05:56:06.178Z,8.40
2018-09-29T05:58:35.822Z,8.60
2018-09-29T06:01:04.422Z,8.60
2018-09-29T06:03:33.046Z,8.50
2018-09-29T06:06:01.629Z,8.60
2018-09-29T06:08:30.173Z,8.60
2018-09-29T06:10:58.700Z,8.60
2018-09-29T06:13:27.364Z,8.70
2018-09-29T06:15:56.238Z,8.70
2018-09-29T06:18:24.791Z,8.80
2018-09-29T06:20:53.383Z,8.80
2018-09-29T06:23:21.812Z,8.80
2018-09-29T06:25:50.395Z,8.90
2018-09-29T06:28:18.891Z,8.90
2018-09-29T06:30:47.507Z,8.90
2018-09-29T06:33:16.659Z,8.90
2018-09-29T06:35:45.169Z,9.00
2018-09-29T06:38:30.272Z,9.10
2018-09-29T06:40:58.809Z,9.10
2018-09-29T06:43:27.348Z,9.30
2018-09-29T06:45:55.972Z,9.50
2018-09-29T06:48:24.572Z,9.60
2018-09-29T06:50:53.088Z,9.70
2018-09-29T06:53:21.555Z,9.80
2018-09-29T06:55:50.548Z,9.90
2018-09-29T06:58:19.152Z,10.00
2018-09-29T07:00:47.726Z,10.10
2018-09-29T07:03:16.274Z,10.20
2018-09-29T07:05:44.787Z,10.30
2018-09-29T07:10:43.658Z,10.40
2018-09-29T07:13:12.226Z,10.50
2018-09-29T07:15:40.835Z,10.60
2018-09-29T07:18:09.406Z,10.70
2018-09-29T07:20:37.989Z,10.70
2018-09-29T07:23:06.713Z,10.80
2018-09-29T07:25:35.363Z,10.90
2018-09-29T07:28:03.841Z,11.00
2018-09-29T07:30:32.423Z,11.00
2018-09-29T07:33:01.173Z,11.10
2018-09-29T07:35:30.139Z,11.10
2018-09-29T07:37:59.212Z,11.20
2018-09-29T07:40:27.785Z,11.30
2018-09-29T07:42:56.642Z,11.40
2018-09-29T07:45:27.196Z,11.40
2018-09-29T07:47:57.224Z,11.50
2018-09-29T07:50:25.982Z,11.50
2018-09-29T07:52:54.432Z,11.60
2018-09-29T07:55:22.945Z,11.70
2018-09-29T07:57:51.466Z,11.80
2018-09-29T08:00:20.033Z,11.90
2018-09-29T08:02:48.622Z,12.60
2018-09-29T08:05:17.135Z,12.60
2018-09-29T08:07:45.704Z,12.80
2018-09-29T08:10:14.202Z,12.80
2018-09-29T08:12:42.866Z,12.70
2018-09-29T08:15:11.523Z,12.80
2018-09-29T08:17:40.340Z,12.80
2018-09-29T08:20:08.862Z,12.70
2018-09-29T08:22:37.333Z,12.70
2018-09-29T08:25:05.796Z,12.70
2018-09-29T08:27:34.381Z,12.70
2018-09-29T08:30:03.521Z,12.70
2018-09-29T08:32:32.185Z,12.70
2018-09-29T08:35:00.851Z,12.60
2018-09-29T08:37:29.553Z,12.70
2018-09-29T08:39:58.781Z,12.70
2018-09-29T08:42:27.519Z,12.70
2018-09-29T08:44:56.932Z,12.80
2018-09-29T08:47:25.672Z,12.90
2018-09-29T08:49:54.424Z,12.90
2018-09-29T08:52:23.183Z,13.00
2018-09-29T08:54:51.746Z,13.00
2018-09-29T08:57:20.242Z,13.00
2018-09-29T08:59:48.784Z,13.00
2018-09-29T09:02:17.361Z,13.10
2018-09-29T09:04:45.805Z,13.10
2018-09-29T09:07:21.074Z,13.10
2018-09-29T09:09:49.553Z,13.20
2018-09-29T09:12:18.093Z,13.20
2018-09-29T09:14:46.644Z,13.20
2018-09-29T09:17:15.241Z,13.20
2018-09-29T09:19:43.698Z,13.20
2018-09-29T09:22:12.219Z,13.20
2018-09-29T09:24:40.697Z,13.30
2018-09-29T09:27:09.251Z,13.40
2018-09-29T09:29:37.786Z,13.40
2018-09-29T09:32:06.517Z,13.50
2018-09-29T09:34:34.976Z,13.50
2018-09-29T09:37:03.461Z,13.50
2018-09-29T09:39:32.156Z,13.50
2018-09-29T09:42:01.621Z,13.60
2018-09-29T09:44:30.296Z,13.70
2018-09-29T09:46:59.128Z,13.70
2018-09-29T09:49:27.809Z,13.80
2018-09-29T09:51:56.598Z,13.90
2018-09-29T09:54:25.634Z,14.00
2018-09-29T09:56:54.182Z,14.00
2018-09-29T09:59:22.690Z,14.00
2018-09-29T10:01:56.741Z,14.00
2018-09-29T10:04:25.324Z,14.10
2018-09-29T10:06:53.811Z,14.30
2018-09-29T10:09:22.422Z,14.40
2018-09-29T10:11:50.960Z,14.40
2018-09-29T10:14:19.462Z,14.60
2018-09-29T10:16:48.016Z,14.60
2018-09-29T10:19:16.590Z,14.60
2018-09-29T10:21:45.146Z,14.70
2018-09-29T10:24:13.710Z,14.80
2018-09-29T10:26:42.391Z,14.80
2018-09-29T10:29:10.907Z,14.90
2018-09-29T10:31:39.612Z,15.00
2018-09-29T10:34:08.083Z,15.00
2018-09-29T10:36:36.653Z,15.10
2018-09-29T10:39:08.051Z,15.10
2018-09-29T10:41:36.641Z,15.10
2018-09-29T10:44:06.031Z,15.20
2018-09-29T10:46:34.501Z,15.20
2018-09-29T10:49:03.456Z,15.20
2018-09-29T10:51:32.122Z,15.20
2018-09-29T10:54:01.009Z,15.20
2018-09-29T10:56:30.339Z,15.30
2018-09-29T10:58:59.421Z,15.30
2018-09-29T11:01:28.275Z,15.20
2018-09-29T11:03:57.065Z,15.20
2018-09-29T11:06:25.684Z,15.30
2018-09-29T11:08:54.405Z,15.20
2018-09-29T11:11:22.914Z,15.20
2018-09-29T11:13:51.397Z,15.20
2018-09-29T11:16:19.968Z,15.20
2018-09-29T11:18:48.548Z,15.20
2018-09-29T11:21:17.045Z,15.30
2018-09-29T11:23:46.622Z,15.30
2018-09-29T11:26:15.914Z,15.30
2018-09-29T11:28:44.513Z,15.40
2018-09-29T11:31:13.022Z,15.40
2018-09-29T11:33:41.814Z,15.30
2018-09-29T11:36:10.301Z,15.30
2018-09-29T11:38:38.877Z,15.30
2018-09-29T11:41:07.589Z,15.40
2018-09-29T11:43:36.337Z,15.40
2018-09-29T11:46:04.947Z,15.50
2018-09-29T11:48:34.400Z,15.40
2018-09-29T11:51:03.233Z,15.50
2018-09-29T11:53:31.871Z,15.50
2018-09-29T11:56:00.451Z,15.50
2018-09-29T11:58:29.683Z,15.40
2018-09-29T12:00:58.366Z,15.50
2018-09-29T12:03:27.687Z,15.60
2018-09-29T12:05:56.371Z,15.60
2018-09-29T12:08:24.951Z,15.50
2018-09-29T12:10:53.782Z,15.40
2018-09-29T12:13:22.727Z,15.40
2018-09-29T12:15:51.530Z,15.50
2018-09-29T12:18:20.080Z,15.50
2018-09-29T12:20:48.757Z,15.50
2018-09-29T12:23:17.331Z,15.50
2018-09-29T12:25:46.015Z,15.50
2018-09-29T12:28:14.584Z,15.60
2018-09-29T12:30:43.184Z,15.60
2018-09-29T12:33:11.730Z,15.60
2018-09-29T12:35:40.310Z,15.60
2018-09-29T12:38:08.729Z,15.70
2018-09-29T12:40:37.237Z,15.70
2018-09-29T12:43:05.736Z,15.70
2018-09-29T12:45:34.324Z,15.70
2018-09-29T12:48:02.990Z,15.70
2018-09-29T12:50:31.749Z,15.70
2018-09-29T12:53:00.421Z,15.80
2018-09-29T12:55:29.225Z,15.80
2018-09-29T12:57:57.964Z,15.90
2018-09-29T13:00:26.953Z,15.90
2018-09-29T13:02:55.534Z,15.90
2018-09-29T13:05:24.114Z,15.90
2018-09-29T13:07:52.695Z,15.90
2018-09-29T13:10:21.553Z,15.90
2018-09-29T13:12:50.088Z,15.90
2018-09-29T13:15:18.887Z,15.90
2018-09-29T13:17:47.372Z,16.00
2018-09-29T13:20:15.919Z,16.00
2018-09-29T13:22:44.445Z,16.00
2018-09-29T13:25:13.019Z,16.00
2018-09-29T13:27:41.651Z,16.10
2018-09-29T13:30:10.292Z,16.10
2018-09-29T13:32:38.838Z,16.20
2018-09-29T13:35:07.405Z,16.20
2018-09-29T13:37:36.004Z,16.20
2018-09-29T13:40:04.542Z,16.10
2018-09-29T13:42:33.080Z,16.10
2018-09-29T13:45:01.963Z,16.20
2018-09-29T13:47:33.010Z,16.10
2018-09-29T13:50:02.036Z,16.10
2018-09-29T13:52:30.807Z,16.00
2018-09-29T13:54:59.524Z,16.10
2018-09-29T13:57:28.231Z,16.10
2018-09-29T13:59:56.850Z,16.20
2018-09-29T14:02:25.523Z,16.20
2018-09-29T14:04:54.094Z,16.20
2018-09-29T14:07:22.666Z,16.30
2018-09-29T14:09:51.149Z,16.30
2018-09-29T14:12:19.636Z,16.30
2018-09-29T14:14:48.182Z,16.20
2018-09-29T14:17:48.552Z,16.30
2018-09-29T14:23:47.076Z,16.20
2018-09-29T14:26:15.646Z,16.20
2018-09-29T14:28:44.128Z,16.30
2018-09-29T14:31:12.660Z,16.20
2018-09-29T14:33:41.337Z,16.20
2018-09-29T14:36:09.921Z,16.20
2018-09-29T14:38:38.449Z,16.20
2018-09-29T14:41:07.163Z,16.20
2018-09-29T14:43:35.673Z,16.20
2018-09-29T14:46:04.258Z,16.20
2018-09-29T14:48:32.965Z,16.20
2018-09-29T14:51:02.093Z,16.20
2018-09-29T14:53:30.842Z,16.20
2018-09-29T14:55:59.568Z,16.20
2018-09-29T14:58:28.322Z,16.20
2018-09-29T15:00:57.486Z,16.20
2018-09-29T15:03:26.920Z,16.30
2018-09-29T15:05:55.896Z,16.20
2018-09-29T15:08:24.549Z,16.20
2018-09-29T15:10:53.223Z,16.20
2018-09-29T15:13:21.961Z,16.10
2018-09-29T15:15:50.897Z,16.10
2018-09-29T15:18:19.577Z,16.20
2018-09-29T15:20:48.107Z,16.20
2018-09-29T15:23:16.742Z,16.10
2018-09-29T15:25:45.228Z,16.10
2018-09-29T15:28:13.781Z,16.00
2018-09-29T15:30:42.283Z,16.00
2018-09-29T15:33:10.805Z,16.00
2018-09-29T15:35:39.308Z,16.00
2018-09-29T15:38:08.256Z,16.00
2018-09-29T15:40:36.897Z,16.00
2018-09-29T15:43:05.501Z,15.90
2018-09-29T15:45:34.011Z,15.90
2018-09-29T15:48:02.633Z,15.90
2018-09-29T15:50:31.377Z,15.80
2018-09-29T15:53:00.296Z,15.80
2018-09-29T15:55:29.152Z,15.80
2018-09-29T15:57:58.030Z,15.80
2018-09-29T16:00:26.739Z,15.80
2018-09-29T16:02:55.612Z,15.80
2018-09-29T16:05:24.307Z,15.70
2018-09-29T16:07:52.990Z,15.60
2018-09-29T16:10:21.590Z,15.60
2018-09-29T16:12:50.144Z,15.60
2018-09-29T16:15:18.665Z,15.60
2018-09-29T16:17:47.275Z,15.60
2018-09-29T16:20:15.841Z,15.60
2018-09-29T16:22:44.318Z,15.50
2018-09-29T16:25:12.891Z,15.60
2018-09-29T16:27:41.553Z,15.60
2018-09-29T16:30:10.100Z,15.60
2018-09-29T16:32:38.621Z,15.50
2018-09-29T16:35:07.063Z,15.50
2018-09-29T16:37:35.750Z,15.50
2018-09-29T16:40:04.314Z,15.50
2018-09-29T16:42:32.839Z,15.40
2018-09-29T16:45:01.477Z,15.40
2018-09-29T16:47:30.010Z,15.30
2018-09-29T16:49:58.837Z,15.20
2018-09-29T16:52:28.357Z,15.20
2018-09-29T16:54:57.618Z,15.10
2018-09-29T16:57:27.571Z,15.10
2018-09-29T16:59:57.228Z,15.00
2018-09-29T17:02:26.343Z,14.90
2018-09-29T17:04:56.122Z,14.80
2018-09-29T17:07:25.304Z,14.70
2018-09-29T17:09:53.888Z,14.70
2018-09-29T17:12:22.822Z,14.60
2018-09-29T17:14:51.975Z,14.60
2018-09-29T17:17:20.941Z,14.50
2018-09-29T17:19:49.650Z,14.40
2018-09-29T17:22:18.168Z,14.30
2018-09-29T17:24:47.162Z,14.20
2018-09-29T17:27:15.652Z,14.10
2018-09-29T17:29:44.190Z,13.90
2018-09-29T17:32:12.749Z,13.80
2018-09-29T17:34:41.298Z,13.70
2018-09-29T17:37:10.217Z,13.60
2018-09-29T17:39:39.308Z,13.50
2018-09-29T17:42:09.251Z,13.40
2018-09-29T17:44:39.238Z,13.40
2018-09-29T17:47:09.327Z,13.30
2018-09-29T17:49:38.848Z,13.20
2018-09-29T17:52:07.821Z,13.20
2018-09-29T17:54:37.292Z,13.10
2018-09-29T17:57:06.860Z,13.10
2018-09-29T17:59:36.000Z,13.10
2018-09-29T18:02:05.227Z,13.10
2018-09-29T18:04:34.238Z,13.00
2018-09-29T18:07:03.519Z,12.90
2018-09-29T18:09:32.671Z,12.90
2018-09-29T18:12:01.797Z,12.90
2018-09-29T18:14:30.452Z,12.80
2018-09-29T18:16:59.126Z,12.80
2018-09-29T18:19:27.928Z,12.70
2018-09-29T18:21:56.481Z,12.50
2018-09-29T18:24:25.198Z,12.40
2018-09-29T18:26:53.753Z,12.30
2018-09-29T18:29:22.504Z,12.30
2018-09-29T18:31:51.301Z,12.20
2018-09-29T18:34:21.029Z,12.20
2018-09-29T18:36:49.825Z,12.20
2018-09-29T18:39:18.591Z,12.20
2018-09-29T18:41:47.450Z,12.10
2018-09-29T18:44:16.092Z,12.10
2018-09-29T18:46:44.721Z,12.10
2018-09-29T18:49:15.605Z,12.00
2018-09-29T18:51:46.325Z,12.00
2018-09-29T18:54:15.517Z,11.80
2018-09-29T18:56:50.817Z,11.80
2018-09-29T18:59:19.602Z,11.70
2018-09-29T19:01:49.599Z,11.70
2018-09-29T19:04:18.481Z,11.60
2018-09-29T19:06:47.071Z,11.60
2018-09-29T19:09:16.166Z,11.60
2018-09-29T19:11:46.485Z,11.50
2018-09-29T19:14:17.381Z,11.40
2018-09-29T19:16:45.998Z,11.40
2018-09-29T19:19:14.763Z,11.30
2018-09-29T19:21:43.570Z,11.30
2018-09-29T19:24:12.095Z,11.30
2018-09-29T19:26:40.915Z,11.20
2018-09-29T19:29:09.421Z,11.20
2018-09-29T19:31:38.297Z,11.20
2018-09-29T19:34:06.950Z,11.30
2018-09-29T19:36:35.707Z,11.20
2018-09-29T19:39:05.988Z,11.10
2018-09-29T19:41:34.600Z,11.00
2018-09-29T19:44:03.157Z,11.00
2018-09-29T19:46:31.851Z,10.80
2018-09-29T19:49:00.519Z,10.80
2018-09-29T19:51:29.403Z,10.80
2018-09-29T19:53:58.133Z,10.80
2018-09-29T19:56:26.975Z,10.80
2018-09-29T19:58:55.581Z,10.80
2018-09-29T20:01:24.114Z,10.70
2018-09-29T20:03:52.663Z,10.70
2018-09-29T20:06:21.323Z,10.70
2018-09-29T20:08:49.914Z,10.70
2018-09-29T20:11:18.482Z,10.50
2018-09-29T20:13:48.050Z,10.50
2018-09-29T20:16:16.732Z,10.50
2018-09-29T20:18:46.723Z,10.30
2018-09-29T20:21:15.342Z,10.40
2018-09-29T20:23:43.904Z,10.40
2018-09-29T20:26:12.654Z,10.50
2018-09-29T20:28:41.319Z,10.40
2018-09-29T20:31:10.235Z,10.40
2018-09-29T20:33:38.774Z,10.40
2018-09-29T20:36:07.401Z,10.40
2018-09-29T20:38:36.060Z,10.30
2018-09-29T20:41:04.687Z,10.20
2018-09-29T20:43:33.444Z,10.20
2018-09-29T20:46:02.100Z,10.30
2018-09-29T20:48:31.137Z,10.20
2018-09-29T20:50:59.778Z,10.20
2018-09-29T20:53:28.411Z,10.10
2018-09-29T20:55:57.000Z,10.10
2018-09-29T20:58:25.809Z,10.10
2018-09-29T21:00:54.451Z,10.00
2018-09-29T21:03:23.058Z,10.00
2018-09-29T21:05:51.614Z,10.00
2018-09-29T21:08:20.113Z,10.00
2018-09-29T21:10:48.686Z,9.90
2018-09-29T21:13:17.288Z,10.00
2018-09-29T21:15:45.947Z,10.00
2018-09-29T21:18:14.806Z,10.00
2018-09-29T21:20:43.304Z,9.80
2018-09-29T21:23:11.828Z,9.90
2018-09-29T21:25:40.364Z,9.70
2018-09-29T21:28:09.012Z,9.80
2018-09-29T21:30:37.643Z,9.90
2018-09-29T21:33:06.358Z,9.80
2018-09-29T21:35:35.602Z,9.80
2018-09-29T21:38:04.224Z,9.80
2018-09-29T21:40:32.982Z,9.80
2018-09-29T21:43:01.710Z,9.70
2018-09-29T21:45:30.494Z,9.80
2018-09-29T21:47:59.494Z,9.70
2018-09-29T21:50:28.241Z,9.60
2018-09-29T21:52:57.130Z,9.60
2018-09-29T21:55:26.477Z,9.60
2018-09-29T21:57:55.125Z,9.60
2018-09-29T22:00:29.067Z,9.60
2018-09-29T22:02:57.767Z,9.60
2018-09-29T22:05:26.438Z,9.50
2018-09-29T22:07:56.076Z,9.40
2018-09-29T22:10:24.739Z,9.50
2018-09-29T22:12:53.591Z,9.40
2018-09-29T22:15:22.194Z,9.40
2018-09-29T22:17:51.202Z,9.30
2018-09-29T22:20:19.676Z,9.30
2018-09-29T22:22:48.181Z,9.30
2018-09-29T22:25:16.680Z,9.30
2018-09-29T22:27:45.226Z,9.20
2018-09-29T22:30:13.809Z,9.30
2018-09-29T22:32:42.352Z,9.30
2018-09-29T22:35:10.877Z,9.30
2018-09-29T22:37:39.559Z,9.30
2018-09-29T22:40:08.296Z,9.40
2018-09-29T22:42:36.824Z,9.40
2018-09-29T22:45:05.515Z,9.40
2018-09-29T22:47:34.065Z,9.30
2018-09-29T22:50:02.964Z,9.20
2018-09-29T22:52:31.580Z,9.10
2018-09-29T22:55:00.248Z,9.10
2018-09-29T22:57:28.833Z,9.10
2018-09-29T22:59:57.354Z,9.00
2018-09-29T23:02:26.013Z,9.10
2018-09-29T23:04:54.570Z,9.00
2018-09-29T23:07:23.145Z,8.80
2018-09-29T23:09:51.665Z,8.80
2018-09-29T23:12:20.228Z,8.70
2018-09-29T23:14:48.825Z,8.70
2018-09-29T23:17:17.375Z,8.80
2018-09-29T23:19:45.957Z,8.80
2018-09-29T23:22:14.513Z,8.80
2018-09-29T23:24:43.023Z,8.80
2018-09-29T23:27:11.683Z,8.80
2018-09-29T23:29:40.474Z,8.90
2018-09-29T23:32:09.019Z,8.90
2018-09-29T23:34:37.615Z,8.80
2018-09-29T23:37:06.150Z,8.80
2018-09-29T23:39:34.641Z,8.80
2018-09-29T23:42:03.137Z,8.70
2018-09-29T23:44:31.783Z,8.70
2018-09-29T23:47:00.377Z,8.70
2018-09-29T23:49:29.113Z,8.60
2018-09-29T23:51:57.880Z,8.50
2018-09-29T23:54:26.692Z,8.60
2018-09-29T23:56:55.475Z,8.50
2018-09-29T23:59:27.424Z,8.50
